AirNav   TITAN Aviation Fuels
 
 489 users online  

9NC9 Meylor Field Airport
Greensboro, North Carolina, USA

GOING TO GREENSBORO?


FAA INFORMATION EFFECTIVE 03 NOVEMBER 2022

Location

FAA Identifier: 9NC9
Lat/Long: 36-12-36.4880N 079-53-42.1290W
36-12.608133N 079-53.702150W
36.2101356,-79.8950358
(estimated)
Elevation: 910 ft. / 277 m (estimated)
Variation: 07W (1990)
From city: 5 miles NW of GREENSBORO, NC
Time zone: UTC -5 (UTC -4 during Daylight Saving Time)
Zip code: 27358

Airport Operations

Airport use: Private use, PERSONAL USE.
Activation date: 03/1992
Control tower: no
ARTCC: ATLANTA CENTER
FSS: RALEIGH FLIGHT SERVICE STATION
Attendance: UNATNDD
Wind indicator: yes
Segmented circle: no

Airport Communications

WX ASOS at GSO (7 nm S): 128.55 (336-393-0168)
WX AWOS-3 at SIF (14 nm N): 119.775 (336-573-3677)
WX ASOS at INT (16 nm W): PHONE 336-661-3096

Nearby radio navigation aids

VOR radial/distance  VOR name  Freq  Var
GSOr025/10.6GREENSBORO VORTAC116.2003W
LIBr333/27.6LIBERTY VORTAC113.0003W
DANr237/(34.5)DANVILLE VOR113.1006W

 
NDB name  Hdg/Dist  Freq  Var  ID
SLAMMER219/12.142307WSIF ... .. ..-.

Airport Services

Runway Information

Runway 9/27

Dimensions: 1500 x 100 ft. / 457 x 30 m
Surface: turf, in excellent condition
RUNWAY 9  RUNWAY 27
Traffic pattern: rightright
Obstructions: 50 ft. treesnone

Airport Ownership and Management from official FAA records

Ownership: Privately-owned
Owner: DEAN MEYLOR
306A MUIRS CHAPEL RD
GREENSBORO, NC 27410
Phone 336-852-2222
Manager: DEAN MEYLOR
2237 SCALESVILLE ROAD
SUMMERFIELD, NC 27358
Phone 336-643-9797
CELL: 336-207-9707

Airport Operational Statistics

Aircraft based on the field: 2
Single engine airplanes: 2
    

Additional Remarks

50 FT TREES ON APCH OF RWY 09.
FOR CD CTC ATLANTA ARTCC AT 770-210-7692.
DEPART RWY 09; LAND RWY 27

Instrument Procedures

There are no published instrument procedures at 9NC9.

Some nearby airports with instrument procedures:

KGSO - Piedmont Triad International Airport (7 nm S)
N63 - Meadow Brook Field Airport (13 nm NW)
KSIF - Rockingham County NC Shiloh Airport (14 nm N)
KINT - Smith Reynolds Airport (16 nm W)
2A5 - Causey Airport (22 nm SE)
 
Loc | Ops | Rwys | IFR | FBO | Links
Com | Nav | Svcs | Stats | Notes
Area around 9NC9 (Meylor Field Airport)
 
Road maps at: MapQuest Bing Google
 
Aerial photo
No photo
 
Sectional chart

 
Airport distance calculator
Flying to Meylor Field Airport? Find the distance to fly.

From to 9NC9

Sunrise and sunset
Times for 28-Nov-2022
 Local
(UTC-5)
 Zulu
(UTC)
Morning civil twilight06:4211:42
Sunrise07:1012:10
Sunset17:0522:05
Evening civil twilight17:3322:33

Current date and time
Zulu (UTC)  28-Nov-2022 07:37:43
Local (UTC-5)  28-Nov-2022 02:37:43
 
METAR
KGSO 
7nm S 
280654Z 26007KT 10SM CLR 10/05 A2974 RMK AO2 SLP066 T01000050
KSIF 
14nm N 
280715Z AUTO 27006KT 10SM BKN055 11/08 A2974 RMK AO2 T01050075
KINT 
16nm W 
280654Z AUTO 27011G18KT 10SM FEW050 14/05 A2976 RMK AO2 SLP071 T01390050
TAF
KGSO 
7nm S 
280523Z 2806/2906 25008KT P6SM SCT025 SCT250 FM281400 30008G16KT P6SM BKN040 FM282200 31006KT P6SM SKC
KINT 
16nm W 
280523Z 2806/2906 27006KT P6SM SCT025 SCT250 FM281400 30008G16KT P6SM BKN040 FM282200 31006KT P6SM SKC
NOTAMs
Click for the latest NOTAMs
NOTAMs are issued by the DoD/FAA and will open in a separate window not controlled by AirNav.

 

 
 

Would you like to see your business listed on this page?

 If your business provides an interesting product or service to pilots, flight crews, aircraft, or users of the Meylor Field Airport, you should consider listing it here.  To start the listing process, click on the button below
 
Add a business
 

Other Pages about Meylor Field Airport

Update a link
 
Copyright © AirNav, LLC. All rights reserved. Privacy Policy  Contact